This is the latest recevied weather packets stored in our database for station/object EA7AIS-10. If no packets are shown the sender has not sent any weather packets the latest 10 day(s).
| Time | Temp. | Humidity | Pressure | Rain* | Wind** | Luminosity | Snow |
|---|---|---|---|---|---|---|---|
| 1777878991 | 22.78° C | 56% | 1012.9 hPa | - | - | - | - |
| 1777878091 | 23.89° C | 53% | 1012.7 hPa | - | - | - | - |
| 1777877191 | 22.22° C | 62% | 1012.7 hPa | - | - | - | - |
| 1777876292 | 17.22° C | 78% | 1012.6 hPa | - | - | - | - |
| 1777875391 | 17.22° C | 81% | 1012.5 hPa | - | - | - | - |
| 1777874491 | 16.67° C | 81% | 1012.3 hPa | - | - | - | - |
| 1777873591 | 16.67° C | 84% | 1012.1 hPa | - | - | - | - |
| 1777872692 | 16.67° C | 83% | 1012 hPa | - | - | - | - |
| 1777871791 | 16.67° C | 80% | 1011.9 hPa | - | - | - | - |
| 1777870891 | 16.67° C | 78% | 1011.7 hPa | - | - | - | - |
| 1777869991 | 16.11° C | 78% | 1011.5 hPa | - | - | - | - |
| 1777869091 | 16.11° C | 80% | 1011.6 hPa | - | - | - | - |
| 1777868191 | 16.11° C | 81% | 1011.5 hPa | - | - | - | - |
| 1777867291 | 16.11° C | 83% | 1011.5 hPa | - | - | - | - |
| 1777866390 | 16.11° C | 83% | 1011.6 hPa | - | - | - | - |
| 1777865491 | 16.11° C | 83% | 1011.8 hPa | - | - | - | - |
| 1777864590 | 16.11° C | 81% | 1011.7 hPa | - | - | - | - |
| 1777863690 | 16.11° C | 82% | 1011.6 hPa | - | - | - | - |
| 1777862790 | 16.11° C | 81% | 1011.6 hPa | - | - | - | - |
| 1777861891 | 16.11° C | 81% | 1011.6 hPa | - | - | - | - |
| 1777860990 | 16.11° C | 80% | 1011.7 hPa | - | - | - | - |
| 1777860090 | 16.11° C | 82% | 1011.6 hPa | - | - | - | - |
| 1777859190 | 16.11° C | 81% | 1011.6 hPa | - | - | - | - |
| 1777858290 | 16.11° C | 81% | 1011.8 hPa | - | - | - | - |
| 1777856490 | 16.67° C | 78% | 1012 hPa | - | - | - | - |
* Rain since midnight (hover to see other rain measurements)
** Current wind speed in m/s (hover to see current wind gust speed)